Time;durP1;ratioP1;P1;durP2;ratioP2;P2;SDS_P1;SDS_P2;PMS_P1;PMS_P2;Temp;Humidity;BMP_temperature;BMP_pressure;BME280_temperature;BME280_humidity;BME280_pressure;Samples;Min_cycle;Max_cycle;Signal;HPM_P1;HPM_P2
2023/07/12 00:01:25;;;;;;;18.45;10.82;;;;;;;25.33;47.88;99062.41;4391185;32;34540;-82
2023/07/12 00:03:53;;;;;;;15.35;10.60;;;;;;;25.33;47.95;99043.84;4389812;32;33880;-83
2023/07/12 00:06:33;;;;;;;17.85;11.30;;;;;;;25.44;47.86;99058.28;4390491;32;34169;-82
2023/07/12 00:09:02;;;;;;;17.17;11.25;;;;;;;25.41;47.93;99062.91;4389789;32;33552;-83
2023/07/12 00:11:30;;;;;;;14.30;10.80;;;;;;;25.31;48.14;99064.31;4389587;32;33505;-82
2023/07/12 00:13:57;;;;;;;14.52;11.18;;;;;;;25.33;48.10;99055.31;4391268;32;34096;-83
2023/07/12 00:16:33;;;;;;;14.90;10.68;;;;;;;25.40;48.15;99038.16;4391321;32;34464;-82
2023/07/12 00:19:01;;;;;;;13.75;10.43;;;;;;;25.32;48.38;99042.13;4389663;32;33653;-83
2023/07/12 00:21:30;;;;;;;17.00;10.95;;;;;;;25.34;48.23;99045.56;4391058;32;34307;-82
2023/07/12 00:23:59;;;;;;;17.75;11.18;;;;;;;25.42;48.01;99046.03;4390908;32;34025;-83
2023/07/12 00:26:26;;;;;;;18.55;11.48;;;;;;;25.32;48.14;99053.59;4389763;32;33889;-82
2023/07/12 00:28:56;;;;;;;16.62;10.13;;;;;;;25.33;48.19;99055.31;4390739;32;34930;-83
2023/07/12 00:31:24;;;;;;;16.08;11.05;;;;;;;25.29;48.20;99056.41;4390769;32;34546;-82
2023/07/12 00:33:52;;;;;;;14.95;10.55;;;;;;;25.41;48.13;99049.63;4390954;32;34898;-82
2023/07/12 00:36:22;;;;;;;18.15;11.43;;;;;;;25.34;48.04;99053.50;4390748;32;33931;-82
2023/07/12 00:38:50;;;;;;;17.40;10.70;;;;;;;25.35;47.94;99048.16;4389578;32;34697;-82
2023/07/12 00:41:55;;;;;;;14.50;10.05;;;;;;;25.25;48.36;99046.88;4390317;32;33555;-82
2023/07/12 00:44:26;;;;;;;13.98;9.55;;;;;;;25.24;48.00;99037.19;4390898;32;33765;-82
2023/07/12 00:46:56;;;;;;;15.45;9.65;;;;;;;25.09;48.13;99041.44;4389730;32;34704;-82
2023/07/12 00:49:25;;;;;;;14.65;9.18;;;;;;;25.05;48.29;99039.00;4402010;32;34995;-82
2023/07/12 00:52:04;;;;;;;16.92;9.40;;;;;;;25.17;47.90;99041.94;4389174;32;33259;-82
2023/07/12 00:54:58;;;;;;;13.30;9.15;;;;;;;25.28;47.61;99044.06;4390384;32;33516;-83
2023/07/12 00:57:28;;;;;;;12.85;8.52;;;;;;;25.38;46.94;99033.84;4390949;32;34802;-83
2023/07/12 00:59:59;;;;;;;12.82;9.65;;;;;;;25.19;45.81;99037.44;4390769;32;33746;-83
2023/07/12 01:02:27;;;;;;;13.05;8.18;;;;;;;25.23;46.23;99035.50;4391024;32;34190;-82
2023/07/12 01:04:57;;;;;;;11.07;7.85;;;;;;;25.34;45.33;99026.97;4388829;32;33993;-81
2023/07/12 01:07:27;;;;;;;12.05;8.02;;;;;;;25.24;45.20;99021.28;4390760;32;34138;-81
2023/07/12 01:09:54;;;;;;;15.88;8.45;;;;;;;25.40;42.94;99010.75;4389619;32;34700;-82
2023/07/12 01:12:22;;;;;;;11.48;7.82;;;;;;;25.19;44.37;99002.94;4390083;32;33699;-82
2023/07/12 01:14:50;;;;;;;10.68;7.28;;;;;;;25.16;43.09;99003.09;4390576;32;34159;-81
2023/07/12 01:17:18;;;;;;;11.75;7.78;;;;;;;25.45;41.73;98993.66;4390776;32;34200;-82
2023/07/12 01:19:47;;;;;;;13.38;8.27;;;;;;;25.25;42.81;98996.47;4390010;32;34202;-82
2023/07/12 01:22:15;;;;;;;12.63;7.78;;;;;;;25.34;43.26;99005.75;4389643;32;34436;-82
2023/07/12 01:24:42;;;;;;;13.82;8.05;;;;;;;25.31;42.98;98998.81;4388069;32;34551;-84
2023/07/12 01:27:17;;;;;;;12.57;7.90;;;;;;;24.88;43.78;98997.38;4387990;32;34987;-83
2023/07/12 01:29:46;;;;;;;12.88;7.95;;;;;;;24.89;43.95;98983.16;4388523;32;34601;-81
2023/07/12 01:32:14;;;;;;;14.05;7.90;;;;;;;24.82;44.01;98995.03;4397307;32;34211;-83
2023/07/12 01:34:44;;;;;;;13.02;7.82;;;;;;;24.69;43.94;98992.09;4388344;32;33774;-88
2023/07/12 01:37:13;;;;;;;12.68;7.45;;;;;;;24.46;44.60;98999.34;4390445;32;34138;-86
2023/07/12 01:39:40;;;;;;;15.10;8.00;;;;;;;24.60;44.69;99000.50;4385337;32;34691;-83
2023/07/12 01:42:10;;;;;;;10.68;7.57;;;;;;;24.67;44.14;99002.78;4389146;32;34273;-83
2023/07/12 01:44:38;;;;;;;14.05;7.65;;;;;;;24.46;44.60;99001.13;4388696;32;33809;-82
2023/07/12 01:47:06;;;;;;;10.60;6.97;;;;;;;24.57;44.34;99004.13;4390016;32;34572;-82
2023/07/12 01:49:33;;;;;;;12.37;7.32;;;;;;;24.75;44.00;99000.63;4390527;32;34533;-84
2023/07/12 01:52:01;;;;;;;12.57;7.65;;;;;;;24.55;44.67;99005.13;4390600;32;32643;-83
2023/07/12 01:54:30;;;;;;;11.98;7.32;;;;;;;24.54;44.46;99014.03;4388372;32;34275;-83
2023/07/12 01:56:58;;;;;;;13.60;6.72;;;;;;;24.52;44.62;99011.47;4389840;32;35083;-83
2023/07/12 01:59:25;;;;;;;14.43;6.82;;;;;;;24.55;44.85;99013.97;4390503;32;34498;-84
2023/07/12 02:01:54;;;;;;;12.43;7.45;;;;;;;24.53;44.85;99013.16;4390274;32;33397;-82
2023/07/12 02:04:22;;;;;;;13.40;7.90;;;;;;;24.54;44.98;99014.03;4389865;32;33773;-82
2023/07/12 02:06:49;;;;;;;13.02;7.30;;;;;;;24.07;46.04;99015.25;4388639;32;33721;-81
2023/07/12 02:09:16;;;;;;;11.43;7.35;;;;;;;24.49;45.28;99012.44;4388684;32;33918;-82
2023/07/12 02:11:45;;;;;;;10.07;7.00;;;;;;;24.50;45.27;99015.94;4383033;32;33693;-81
2023/07/12 02:14:13;;;;;;;11.55;7.50;;;;;;;24.79;44.98;99003.13;4388263;32;33150;-82
2023/07/12 02:16:41;;;;;;;10.88;6.68;;;;;;;25.00;44.04;98997.66;4389294;32;34943;-82
2023/07/12 02:19:09;;;;;;;13.35;7.32;;;;;;;24.42;45.37;98999.56;4389587;32;34632;-85
2023/07/12 02:21:36;;;;;;;12.35;7.45;;;;;;;24.61;45.03;98995.09;4389651;32;33829;-83
2023/07/12 02:24:04;;;;;;;10.57;6.93;;;;;;;24.33;45.71;99006.12;4388588;32;34220;-80
2023/07/12 02:26:35;;;;;;;10.73;6.85;;;;;;;24.44;45.55;98985.31;4390149;32;33973;-81
2023/07/12 02:29:03;;;;;;;11.95;7.00;;;;;;;24.10;46.34;98988.63;4388312;32;34833;-80
2023/07/12 02:31:31;;;;;;;9.48;7.00;;;;;;;23.75;47.30;98985.75;4388948;32;33113;-82
2023/07/12 02:33:59;;;;;;;11.35;7.53;;;;;;;23.98;46.65;98983.84;4389223;32;33968;-81
2023/07/12 02:36:26;;;;;;;10.30;6.28;;;;;;;24.06;46.64;98984.41;4389928;32;33632;-82
2023/07/12 02:38:54;;;;;;;11.12;7.25;;;;;;;23.74;47.19;98975.22;4389836;32;33623;-80
2023/07/12 02:41:21;;;;;;;10.23;6.20;;;;;;;23.74;47.78;98976.09;4389618;32;33642;-82
2023/07/12 02:43:49;;;;;;;13.05;6.80;;;;;;;23.87;46.89;98975.56;4388509;32;34784;-83
2023/07/12 02:46:17;;;;;;;12.68;6.90;;;;;;;23.33;48.26;98969.03;4388914;32;34861;-83
2023/07/12 02:48:44;;;;;;;9.05;6.50;;;;;;;23.44;48.44;98972.94;4388507;32;33929;-81
2023/07/12 02:51:12;;;;;;;12.60;7.15;;;;;;;23.77;47.54;98978.59;4389282;32;33250;-82
2023/07/12 02:53:40;;;;;;;14.60;6.28;;;;;;;23.30;48.75;98978.84;4381184;32;33976;-80
2023/07/12 02:56:08;;;;;;;11.10;6.35;;;;;;;23.60;48.10;98972.28;4387554;32;34715;-81
2023/07/12 02:58:37;;;;;;;12.55;6.32;;;;;;;23.90;47.64;98980.69;4388189;32;33838;-82
2023/07/12 03:01:04;;;;;;;9.50;6.43;;;;;;;23.93;47.75;98969.97;4387053;32;34139;-81
2023/07/12 03:03:32;;;;;;;9.93;5.95;;;;;;;23.97;47.07;98960.97;4390047;32;34000;-82
2023/07/12 03:06:03;;;;;;;12.43;6.20;;;;;;;24.35;46.28;98961.00;4388311;32;34296;-82
2023/07/12 03:08:31;;;;;;;10.38;6.12;;;;;;;24.17;46.90;98958.28;4389417;32;34070;-81
2023/07/12 03:10:59;;;;;;;9.27;6.12;;;;;;;24.09;46.84;98964.84;4391276;32;33306;-83
2023/07/12 03:13:26;;;;;;;10.70;5.62;;;;;;;24.35;46.04;98961.84;4391716;32;34026;-81
2023/07/12 03:15:54;;;;;;;10.50;6.30;;;;;;;23.69;47.65;98946.31;4390749;32;35052;-80
2023/07/12 03:18:21;;;;;;;12.13;6.70;;;;;;;23.71;47.52;98954.19;4381844;32;33729;-81
2023/07/12 03:20:49;;;;;;;12.15;6.62;;;;;;;23.83;47.72;98964.25;4376984;32;33261;-83
2023/07/12 03:23:17;;;;;;;11.12;5.78;;;;;;;23.89;47.29;98965.75;4391193;32;34811;-84
2023/07/12 03:25:45;;;;;;;10.07;6.10;;;;;;;23.77;47.46;98970.66;4391117;32;33609;-82
2023/07/12 03:28:13;;;;;;;11.32;5.78;;;;;;;23.73;47.78;98977.00;4390666;32;34083;-82
2023/07/12 03:30:40;;;;;;;11.32;6.43;;;;;;;23.66;48.31;98980.84;4389632;32;33397;-81
2023/07/12 03:33:08;;;;;;;10.27;6.18;;;;;;;23.53;48.14;98977.00;4391456;32;33982;-81
2023/07/12 03:35:35;;;;;;;10.20;5.55;;;;;;;23.68;47.94;98972.87;4391239;32;34149;-81
2023/07/12 03:38:03;;;;;;;10.82;6.53;;;;;;;23.51;48.17;98971.75;4390767;32;33633;-80
2023/07/12 03:40:31;;;;;;;12.07;6.28;;;;;;;23.70;47.77;98968.34;4388225;32;33607;-82
2023/07/12 03:42:58;;;;;;;11.05;6.65;;;;;;;23.67;47.50;98977.28;4391504;32;33967;-82
2023/07/12 03:45:26;;;;;;;11.68;6.05;;;;;;;23.52;47.74;98983.19;4391384;32;34201;-82
2023/07/12 03:47:53;;;;;;;11.57;6.43;;;;;;;23.62;47.75;98978.38;4391472;32;33632;-82
2023/07/12 03:50:21;;;;;;;8.93;6.12;;;;;;;23.76;47.29;98984.84;4387705;32;33532;-82
2023/07/12 03:52:49;;;;;;;10.15;5.65;;;;;;;23.75;47.66;98985.75;4387912;32;34062;-83
2023/07/12 03:55:16;;;;;;;8.90;5.32;;;;;;;23.82;47.26;98988.13;4391465;32;33751;-84
2023/07/12 03:57:44;;;;;;;8.82;5.50;;;;;;;23.97;47.06;98988.28;4390900;32;34158;-80
2023/07/12 04:00:15;;;;;;;9.40;6.10;;;;;;;24.09;46.95;98980.72;4390144;32;34097;-81
2023/07/12 04:02:43;;;;;;;9.27;6.47;;;;;;;23.75;47.92;98972.53;4389709;32;34384;-83
2023/07/12 04:05:11;;;;;;;8.98;5.53;;;;;;;23.87;47.65;98983.50;4386037;32;35198;-82
2023/07/12 04:07:38;;;;;;;10.93;6.60;;;;;;;24.11;47.37;98984.19;4386800;32;33412;-82
2023/07/12 04:10:06;;;;;;;10.55;6.57;;;;;;;24.11;47.85;98979.75;4385597;32;33637;-81
2023/07/12 04:12:36;;;;;;;7.57;5.87;;;;;;;24.42;46.93;98984.50;4389488;32;34557;-80
2023/07/12 04:15:04;;;;;;;10.75;6.30;;;;;;;24.57;46.16;98992.69;4386742;32;34060;-80
2023/07/12 04:17:36;;;;;;;11.48;5.85;;;;;;;24.61;46.32;99000.41;4389813;32;34824;-80
2023/07/12 04:20:05;;;;;;;10.63;6.12;;;;;;;24.35;46.88;99003.37;4384550;32;32383;-83
2023/07/12 04:22:33;;;;;;;10.88;6.35;;;;;;;24.79;46.04;98997.81;4376001;32;33854;-82
2023/07/12 04:25:00;;;;;;;11.23;6.30;;;;;;;24.66;46.64;98998.41;4375955;32;33964;-83
2023/07/12 04:27:28;;;;;;;12.70;6.47;;;;;;;24.81;46.20;99002.09;4379194;32;34359;-82
2023/07/12 04:29:55;;;;;;;9.32;5.75;;;;;;;24.85;45.84;99008.13;4391138;32;33519;-83
2023/07/12 04:32:23;;;;;;;12.37;6.30;;;;;;;24.62;46.82;98991.53;4390685;32;34438;-84
2023/07/12 04:34:54;;;;;;;12.40;5.82;;;;;;;24.49;47.30;98970.03;4391036;32;34979;-83
2023/07/12 04:37:22;;;;;;;8.65;6.18;;;;;;;24.90;46.99;98953.09;4390989;32;33799;-82
2023/07/12 04:39:49;;;;;;;10.23;5.68;;;;;;;24.92;46.68;98962.66;4390871;32;33453;-82
2023/07/12 04:42:17;;;;;;;9.77;5.80;;;;;;;25.04;46.42;98971.84;4391278;32;34795;-83
2023/07/12 04:44:45;;;;;;;8.60;5.75;;;;;;;25.51;44.88;98960.66;4390996;32;34269;-83
2023/07/12 05:02:27;;;;;;;10.73;5.82;;;;;;;24.88;46.41;98957.59;4633937;27;20131;-84
2023/07/12 05:04:55;;;;;;;9.32;6.12;;;;;;;25.37;45.05;98979.06;4405657;32;33338;-84
2023/07/12 05:07:23;;;;;;;12.07;6.22;;;;;;;25.59;45.31;98978.81;4406029;32;34243;-84
2023/07/12 05:09:50;;;;;;;8.88;5.15;;;;;;;25.60;45.91;98983.19;4406059;32;34209;-85
2023/07/12 05:12:18;;;;;;;10.52;6.60;;;;;;;25.89;45.04;98974.59;4405913;32;33003;-84
2023/07/12 05:14:45;;;;;;;14.68;6.50;;;;;;;25.60;44.80;98965.47;4406220;32;33160;-84
2023/07/12 05:17:13;;;;;;;14.65;6.07;;;;;;;25.30;45.37;98967.03;4406122;32;34831;-84
2023/07/12 05:19:41;;;;;;;13.32;5.97;;;;;;;25.22;45.67;98964.78;4389525;32;32888;-84
2023/07/12 05:22:08;;;;;;;13.02;6.35;;;;;;;25.38;46.02;98960.44;4390961;32;33419;-84
2023/07/12 05:24:36;;;;;;;10.02;6.03;;;;;;;25.50;45.72;98950.97;4390807;32;33892;-83
2023/07/12 05:27:04;;;;;;;12.32;6.15;;;;;;;25.89;45.24;98960.47;4389419;32;33660;-83
2023/07/12 05:29:34;;;;;;;12.50;6.12;;;;;;;25.45;45.05;98950.31;4389467;32;34203;-84
2023/07/12 05:32:01;;;;;;;9.95;6.07;;;;;;;25.51;45.27;98951.81;4390026;32;33506;-84
2023/07/12 05:34:29;;;;;;;9.40;5.45;;;;;;;25.81;44.32;98954.72;4390566;32;33887;-84
2023/07/12 05:36:58;;;;;;;9.07;6.05;;;;;;;25.85;43.96;98943.84;4390735;32;33812;-84
2023/07/12 05:39:25;;;;;;;13.15;6.35;;;;;;;26.03;43.93;98949.97;4390893;32;33471;-84
2023/07/12 05:41:53;;;;;;;8.52;5.62;;;;;;;26.10;44.25;98937.19;4390470;32;34137;-85
2023/07/12 05:44:20;;;;;;;10.57;6.07;;;;;;;26.58;42.33;98943.44;4390734;32;34665;-84
2023/07/12 05:46:48;;;;;;;11.65;6.22;;;;;;;26.72;42.67;98945.31;4389307;32;34602;-83
2023/07/12 05:49:16;;;;;;;8.75;5.55;;;;;;;27.07;42.83;98946.78;4390544;32;34035;-84
2023/07/12 05:51:44;;;;;;;9.25;5.65;;;;;;;27.06;42.52;98950.41;4389715;32;33377;-85
2023/07/12 05:54:12;;;;;;;10.15;5.93;;;;;;;27.07;42.33;98941.47;4389372;32;33437;-84
2023/07/12 05:56:40;;;;;;;9.93;6.30;;;;;;;27.03;42.35;98937.28;4390605;32;34136;-85
2023/07/12 05:59:09;;;;;;;10.10;5.93;;;;;;;27.60;43.01;98932.13;4390733;32;33333;-85
2023/07/12 06:01:37;;;;;;;11.90;6.12;;;;;;;27.53;42.10;98920.13;4390368;32;33632;-84
2023/07/12 06:04:07;;;;;;;11.55;5.82;;;;;;;27.59;41.43;98911.78;4390495;32;34606;-84
2023/07/12 06:06:35;;;;;;;13.00;6.10;;;;;;;28.05;41.37;98921.44;4390807;32;34680;-84
2023/07/12 06:09:02;;;;;;;12.00;6.37;;;;;;;27.67;41.83;98923.78;4390683;32;34235;-84
2023/07/12 06:11:30;;;;;;;11.57;6.12;;;;;;;27.78;41.52;98916.00;4390816;32;32779;-84
2023/07/12 06:13:57;;;;;;;13.62;6.15;;;;;;;27.93;40.54;98904.41;4390549;32;33134;-83
2023/07/12 06:16:26;;;;;;;11.80;6.47;;;;;;;27.75;41.77;98908.19;4390491;32;34606;-85
2023/07/12 06:18:53;;;;;;;13.05;6.07;;;;;;;28.17;40.53;98901.97;4390287;32;33649;-84
2023/07/12 06:21:21;;;;;;;12.50;6.53;;;;;;;27.47;43.15;98904.53;4390387;32;33524;-84
2023/07/12 06:23:49;;;;;;;8.65;6.37;;;;;;;28.02;42.02;98900.28;4390199;32;33787;-84
2023/07/12 06:26:17;;;;;;;12.25;6.47;;;;;;;28.06;41.39;98899.16;4390315;32;35128;-84
2023/07/12 06:28:44;;;;;;;11.73;6.15;;;;;;;28.17;41.33;98893.13;4388915;32;33833;-84
2023/07/12 06:31:12;;;;;;;11.07;6.82;;;;;;;28.61;41.66;98888.47;4390141;32;33607;-83
2023/07/12 06:33:40;;;;;;;16.30;6.97;;;;;;;28.31;40.90;98885.12;4390191;32;34948;-84
2023/07/12 06:36:08;;;;;;;11.15;6.82;;;;;;;28.76;40.40;98891.94;4390382;32;34590;-84
2023/07/12 06:38:36;;;;;;;14.60;6.87;;;;;;;29.16;40.60;98896.44;4388741;32;34578;-84
2023/07/12 06:41:03;;;;;;;11.80;7.12;;;;;;;29.29;39.25;98905.34;4390135;32;33215;-84
2023/07/12 06:43:31;;;;;;;12.85;8.63;;;;;;;29.09;38.89;98912.91;4389610;32;33215;-83
2023/07/12 06:45:58;;;;;;;12.73;7.97;;;;;;;29.05;38.75;98915.84;4389891;32;33785;-85
2023/07/12 06:48:26;;;;;;;10.43;7.28;;;;;;;28.87;39.27;98915.25;4376381;32;33811;-82
2023/07/12 06:50:54;;;;;;;14.13;7.82;;;;;;;29.40;39.36;98918.81;4390030;32;34007;-84
2023/07/12 06:53:22;;;;;;;18.15;8.15;;;;;;;28.66;40.03;98906.00;4388487;32;33955;-84
2023/07/12 06:55:50;;;;;;;11.50;7.60;;;;;;;28.93;40.23;98914.84;4376222;32;33472;-84
2023/07/12 06:58:17;;;;;;;14.48;8.00;;;;;;;28.87;40.70;98912.59;4375952;32;33211;-85
2023/07/12 07:00:45;;;;;;;14.70;8.20;;;;;;;29.14;40.32;98909.06;4389628;32;34334;-85
2023/07/12 07:03:13;;;;;;;12.07;7.30;;;;;;;29.31;39.90;98912.28;4389822;32;33179;-85
2023/07/12 07:05:42;;;;;;;14.55;7.82;;;;;;;29.29;40.46;98914.22;4376143;32;34239;-83
2023/07/12 07:08:12;;;;;;;12.23;7.32;;;;;;;29.09;39.35;98904.91;4388482;32;34678;-82
2023/07/12 07:10:40;;;;;;;13.23;7.20;;;;;;;28.27;40.94;98896.94;4376238;32;33288;-84
2023/07/12 07:13:08;;;;;;;18.95;7.72;;;;;;;27.77;42.50;98890.31;4388307;32;33909;-84
2023/07/12 07:15:36;;;;;;;15.40;8.15;;;;;;;28.21;42.37;98881.31;4389592;32;33542;-85
2023/07/12 07:18:04;;;;;;;16.05;7.70;;;;;;;28.16;42.27;98875.44;4389655;32;33539;-84
2023/07/12 07:20:32;;;;;;;12.82;8.20;;;;;;;28.29;42.32;98858.53;4389625;32;33480;-84
2023/07/12 07:22:59;;;;;;;13.70;7.50;;;;;;;28.53;41.71;98849.94;4389391;32;34652;-85
2023/07/12 07:25:28;;;;;;;12.70;7.80;;;;;;;29.06;41.57;98841.03;4388175;32;33950;-83
2023/07/12 07:27:55;;;;;;;15.80;8.60;;;;;;;29.06;40.67;98842.84;4389318;32;34604;-85
2023/07/12 07:30:26;;;;;;;16.70;7.85;;;;;;;29.26;40.82;98834.31;4388192;32;34003;-84
2023/07/12 07:32:54;;;;;;;13.95;8.07;;;;;;;29.50;40.68;98837.09;4375906;32;34583;-84
2023/07/12 07:35:23;;;;;;;13.65;8.07;;;;;;;29.12;40.73;98826.41;4389396;32;34171;-84
2023/07/12 07:37:51;;;;;;;12.55;8.43;;;;;;;29.28;40.40;98834.19;4389399;32;33928;-84
2023/07/12 07:40:19;;;;;;;12.85;7.90;;;;;;;29.48;40.35;98817.66;4389368;32;33273;-85
2023/07/12 07:42:46;;;;;;;14.25;8.18;;;;;;;29.71;40.59;98823.22;4387683;32;33838;-82
2023/07/12 07:45:14;;;;;;;12.90;8.88;;;;;;;29.19;40.59;98834.84;4388177;32;34969;-85
2023/07/12 07:47:42;;;;;;;17.67;8.55;;;;;;;29.19;41.57;98818.81;4389356;32;35406;-84
2023/07/12 07:50:09;;;;;;;13.38;7.65;;;;;;;29.44;41.13;98818.00;4389256;32;33161;-84
2023/07/12 07:52:37;;;;;;;12.63;7.80;;;;;;;29.51;40.75;98828.13;4375751;32;34934;-84
2023/07/12 07:55:05;;;;;;;17.42;8.25;;;;;;;29.49;41.24;98822.03;4389306;32;34311;-84
2023/07/12 07:57:33;;;;;;;13.13;7.65;;;;;;;29.29;41.20;98810.09;4391042;32;34868;-85
2023/07/12 08:00:05;;;;;;;13.80;7.82;;;;;;;29.85;41.02;98804.34;4391424;32;34971;-83
2023/07/12 08:02:39;;;;;;;15.73;8.80;;;;;;;29.51;40.17;98796.06;4391214;32;33977;-83
2023/07/12 08:05:07;;;;;;;15.98;8.63;;;;;;;29.28;41.32;98802.16;4391318;32;35090;-84
2023/07/12 08:07:39;;;;;;;13.93;8.32;;;;;;;29.39;41.65;98791.56;4391531;32;33597;-84
2023/07/12 08:10:09;;;;;;;14.25;9.63;;;;;;;29.15;42.81;98793.31;4377852;32;34131;-84
2023/07/12 08:12:37;;;;;;;11.98;8.30;;;;;;;29.62;41.97;98791.78;4377725;32;32778;-84
2023/07/12 08:15:05;;;;;;;13.43;9.00;;;;;;;29.56;41.08;98782.37;4391400;32;34131;-84
2023/07/12 08:17:33;;;;;;;13.95;8.40;;;;;;;29.89;41.67;98773.78;4389974;32;34478;-85
2023/07/12 08:20:00;;;;;;;14.65;9.23;;;;;;;29.75;42.03;98771.25;4391242;32;32928;-84
2023/07/12 08:22:28;;;;;;;14.70;9.20;;;;;;;29.94;41.28;98776.97;4391104;32;33874;-84
2023/07/12 08:24:56;;;;;;;15.30;9.00;;;;;;;29.96;41.08;98780.38;4390720;32;33801;-84
2023/07/12 08:27:23;;;;;;;14.80;8.77;;;;;;;29.46;41.49;98776.84;4391213;32;34654;-85
2023/07/12 08:29:50;;;;;;;12.07;7.82;;;;;;;30.04;41.72;98772.66;4377794;32;33838;-85
2023/07/12 08:32:19;;;;;;;15.90;8.75;;;;;;;29.96;40.92;98780.38;4389686;32;34532;-84
2023/07/12 08:34:47;;;;;;;16.12;9.38;;;;;;;30.30;41.28;98780.59;4391064;32;34124;-85
2023/07/12 08:37:14;;;;;;;15.35;9.60;;;;;;;30.20;41.01;98780.44;4391171;32;33740;-85
2023/07/12 08:39:42;;;;;;;14.70;9.18;;;;;;;30.20;41.15;98804.50;4389789;32;34050;-85
2023/07/12 08:42:12;;;;;;;17.10;9.35;;;;;;;30.41;41.33;98801.19;4391098;32;33970;-84
2023/07/12 08:44:42;;;;;;;14.68;9.63;;;;;;;30.44;39.45;98788.44;4389751;32;34909;-84
2023/07/12 08:47:30;;;;;;;13.68;9.15;;;;;;;30.45;39.82;98792.81;4389661;32;34287;-85
2023/07/12 08:49:58;;;;;;;10.85;8.27;;;;;;;30.57;40.83;98784.84;4377228;32;33577;-84
2023/07/12 08:52:30;;;;;;;15.68;9.50;;;;;;;30.87;40.33;98781.69;4390903;32;33916;-84
2023/07/12 08:55:00;;;;;;;16.90;10.27;;;;;;;30.57;40.34;98790.19;4389549;32;35486;-85
2023/07/12 08:57:29;;;;;;;17.58;9.05;;;;;;;30.65;40.51;98791.34;4389715;32;33625;-85
2023/07/12 09:00:07;;;;;;;17.52;10.25;;;;;;;30.99;40.60;98797.66;4377308;32;33918;-85
2023/07/12 09:02:35;;;;;;;17.70;9.35;;;;;;;31.02;39.55;98809.94;4377183;32;34896;-85
2023/07/12 09:05:12;;;;;;;18.58;9.18;;;;;;;31.17;40.03;98810.59;4389705;32;34143;-85
2023/07/12 09:08:00;;;;;;;20.50;9.57;;;;;;;31.32;40.02;98806.75;4376091;32;33779;-85
2023/07/12 09:10:29;;;;;;;16.12;9.38;;;;;;;31.16;40.06;98824.94;4389633;32;32843;-84
2023/07/12 09:12:59;;;;;;;14.07;9.40;;;;;;;31.07;41.08;98831.88;4391226;32;34049;-85
2023/07/12 09:15:37;;;;;;;14.18;9.75;;;;;;;31.09;40.48;98821.03;4390597;32;33957;-84
2023/07/12 09:18:07;;;;;;;15.65;9.75;;;;;;;31.08;39.21;98817.50;4377284;32;34588;-84
2023/07/12 09:20:39;;;;;;;16.75;9.15;;;;;;;31.06;39.68;98816.75;4377224;32;32861;-85
2023/07/12 09:23:11;;;;;;;15.18;9.90;;;;;;;30.91;40.37;98818.81;4376835;32;33287;-85
2023/07/12 09:25:38;;;;;;;16.17;9.50;;;;;;;31.21;39.45;98812.91;4377112;32;34166;-85
2023/07/12 09:28:11;;;;;;;16.08;9.35;;;;;;;31.63;40.43;98823.94;4390698;32;33970;-85
2023/07/12 09:30:38;;;;;;;14.35;9.50;;;;;;;31.54;39.89;98823.81;4389762;32;34397;-84
2023/07/12 09:33:06;;;;;;;12.93;9.35;;;;;;;31.59;39.29;98821.63;4377228;32;34802;-85
2023/07/12 09:35:45;;;;;;;15.07;9.05;;;;;;;31.76;39.59;98822.97;4390722;32;33886;-85
2023/07/12 09:38:23;;;;;;;19.37;9.60;;;;;;;32.16;38.97;98828.66;4390561;32;34675;-85
2023/07/12 09:40:52;;;;;;;17.12;10.02;;;;;;;31.95;38.95;98832.09;4364493;32;33044;-85
2023/07/12 09:43:24;;;;;;;18.73;9.88;;;;;;;31.73;38.84;98832.94;4389289;32;33947;-84
2023/07/12 09:46:23;;;;;;;16.27;10.07;;;;;;;31.65;39.07;98837.22;4390614;32;34613;-85
2023/07/12 09:49:16;;;;;;;12.32;9.45;;;;;;;31.69;39.65;98836.00;4389306;32;34487;-84
2023/07/12 09:52:01;;;;;;;15.25;9.57;;;;;;;31.65;39.35;98826.50;4376840;32;33612;-84
2023/07/12 09:54:41;;;;;;;16.10;10.05;;;;;;;31.76;40.01;98825.66;4389048;32;33947;-85
2023/07/12 09:57:17;;;;;;;17.60;9.82;;;;;;;31.98;39.55;98831.88;4389740;32;34169;-84
2023/07/12 09:59:45;;;;;;;16.20;9.60;;;;;;;32.08;39.15;98833.78;4389189;32;34080;-85
2023/07/12 10:02:34;;;;;;;14.63;9.55;;;;;;;32.22;39.72;98823.62;4390540;32;34207;-85
2023/07/12 10:05:04;;;;;;;16.92;10.70;;;;;;;32.26;39.78;98826.94;4390101;32;33888;-84
2023/07/12 10:07:41;;;;;;;17.00;10.68;;;;;;;32.14;38.83;98809.16;4390373;32;34128;-83
2023/07/12 10:10:17;;;;;;;17.12;10.80;;;;;;;32.41;38.78;98814.97;4390366;32;34599;-85
2023/07/12 10:13:01;;;;;;;19.92;10.23;;;;;;;32.42;38.69;98811.28;4364457;32;32764;-85
2023/07/12 10:15:32;;;;;;;15.02;9.63;;;;;;;32.19;41.14;98812.31;4390554;32;33674;-84
2023/07/12 10:17:59;;;;;;;18.02;10.30;;;;;;;32.32;39.08;98810.34;4376585;32;34841;-84
2023/07/12 10:20:28;;;;;;;15.40;10.38;;;;;;;32.47;39.97;98802.88;4388763;32;34761;-85
2023/07/12 10:22:56;;;;;;;17.15;10.18;;;;;;;32.09;40.08;98800.66;4390290;32;33467;-85
2023/07/12 10:25:27;;;;;;;16.77;9.80;;;;;;;32.37;39.55;98802.75;4390391;32;33766;-85
2023/07/12 10:28:02;;;;;;;18.80;10.80;;;;;;;32.50;39.45;98799.06;4377006;32;34804;-84
2023/07/12 10:30:31;;;;;;;17.35;10.10;;;;;;;32.49;38.17;98805.44;4376901;32;33843;-85
2023/07/12 10:33:09;;;;;;;17.37;10.20;;;;;;;32.39;39.22;98800.81;4376419;32;32554;-83
2023/07/12 10:35:46;;;;;;;12.85;10.52;;;;;;;32.33;38.70;98790.56;4376425;32;33880;-85
2023/07/12 10:38:17;;;;;;;16.15;10.18;;;;;;;32.26;39.78;98786.69;4388978;32;35124;-84
2023/07/12 10:41:23;;;;;;;16.05;9.88;;;;;;;32.58;38.34;98772.44;4388790;32;34719;-85
2023/07/12 10:44:01;;;;;;;15.88;9.75;;;;;;;32.55;39.76;98762.84;4375235;32;34034;-85
2023/07/12 10:46:33;;;;;;;16.45;10.73;;;;;;;32.98;38.93;98774.47;4363930;32;33146;-84
2023/07/12 10:49:14;;;;;;;23.87;10.55;;;;;;;32.87;38.55;98786.94;4364179;32;33497;-85
2023/07/12 10:51:44;;;;;;;16.00;10.60;;;;;;;32.99;38.46;98786.91;4373757;32;89076;-85
2023/07/12 10:54:35;;;;;;;19.60;11.00;;;;;;;33.38;36.48;98779.91;4388766;32;33450;-85
2023/07/12 10:57:23;;;;;;;21.75;11.15;;;;;;;33.04;37.72;98785.53;4383842;32;34205;-86
2023/07/12 11:00:03;;;;;;;14.02;9.90;;;;;;;33.46;38.08;98779.25;4388586;32;33826;-86
2023/07/12 11:02:44;;;;;;;19.10;9.35;;;;;;;33.38;40.59;98783.44;4375769;32;33710;-86
2023/07/12 11:05:45;;;;;;;15.23;10.05;;;;;;;33.39;37.21;98782.47;4388460;32;32992;-84
2023/07/12 11:08:31;;;;;;;19.37;10.88;;;;;;;33.29;37.91;98789.59;4363749;32;33315;-84
2023/07/12 11:11:00;;;;;;;21.08;11.05;;;;;;;32.99;39.10;98789.59;4389802;32;34054;-86
2023/07/12 11:13:33;;;;;;;18.80;10.38;;;;;;;33.50;37.52;98784.25;4363345;32;32844;-85
2023/07/12 11:16:10;;;;;;;13.65;9.52;;;;;;;33.47;37.48;98786.34;4388518;32;33089;-84
2023/07/12 11:18:37;;;;;;;16.30;9.60;;;;;;;33.53;38.43;98785.81;4374773;32;33467;-82
2023/07/12 11:21:07;;;;;;;16.62;9.68;;;;;;;33.69;37.94;98788.84;4389328;32;34069;-83
2023/07/12 11:23:40;;;;;;;16.25;10.00;;;;;;;33.84;36.86;98795.53;4363007;32;33759;-85
2023/07/12 11:26:33;;;;;;;12.93;9.02;;;;;;;33.66;38.09;98797.16;4389368;32;33850;-82
2023/07/12 11:29:23;;;;;;;12.13;9.25;;;;;;;33.83;36.73;98801.91;4374710;32;34011;-86
2023/07/12 11:32:07;;;;;;;17.37;10.07;;;;;;;33.52;38.53;98811.81;4381779;32;34298;-85
2023/07/12 11:34:38;;;;;;;12.57;9.30;;;;;;;33.36;38.70;98811.44;4389083;32;34711;-84
2023/07/12 11:37:16;;;;;;;19.27;10.02;;;;;;;33.43;38.23;98816.12;4390290;32;33348;-83
2023/07/12 11:39:46;;;;;;;18.45;9.15;;;;;;;33.68;37.78;98803.28;4391324;32;33782;-82
2023/07/12 11:42:24;;;;;;;12.48;8.85;;;;;;;33.38;39.54;98814.84;4378212;32;35111;-85
2023/07/12 11:45:03;;;;;;;11.68;8.45;;;;;;;33.23;38.42;98805.44;4377592;32;33881;-83
2023/07/12 11:47:42;;;;;;;14.00;8.43;;;;;;;33.42;37.67;98800.16;4390781;32;33494;-84
2023/07/12 11:50:23;;;;;;;11.32;7.32;;;;;;;33.05;37.77;98800.66;4391109;32;33812;-84
2023/07/12 11:52:52;;;;;;;15.50;7.90;;;;;;;33.60;36.68;98797.69;4377855;32;33906;-86
2023/07/12 11:55:22;;;;;;;11.85;7.60;;;;;;;33.43;37.22;98809.91;4390106;32;34735;-84